Terminal Aerodrome Forecast
Issued by NWS

Home | Current Version | Previous Version | Graphics & Text | Print | Product List | Glossary On
Versions: 1 2 3 4 5 6 7 8 9 10 11 12 13 14 15 16 17
000
FTUS43 KMPX 240520
TAFRWF
TAF
KRWF 240520Z 2406/2506 14010KT P6SM FEW070 BKN150
     FM241500 18017G25KT P6SM SCT060 BKN150 PROB30 2421/2501 -TSRA
      BKN050CB
     FM250100 19012KT P6SM SCT050=

USA.gov is the U.S. government's official web portal to all federal, state and local government web resources and services.